Aplicació Alertes

Dades de l'estació automàtica PN del Garraf - el Rascler

?
?
Resum diari 23:00 TU
Dades diàries de l'estació meteorològica
Temperatura mitjana 11.1 °C
Temperatura màxima 15.5 °C 12:11 TU
Temperatura mínima 8.6 °C 4:17 TU
Humitat relativa mitjana 62%
Precipitació acumulada 0.0 mm
Ratxa màxima del vent (2 m) 15.1 km/h - 11º 17:53 TU
Irradiació solar global 10.9 MJ/m2

El tram horari està expressat en Temps Universal (TU). Cal sumar una hora en horari d'hivern i dues en horari d'estiu per passar a l'hora oficial.

PN del Garraf - el Rascler

Metadades estació meteorol´gica
Municipi Begues
Comarca Baix Llobregat
Altitud 573 m
Data alta 29.02.1996
Estat actual Operativa
Dades de període
Període
TU
TM
°C
TX
°C
TN
°C
HRM
%
PPT
mm
VVM (2 m)
km/h
DVM (2 m)
graus
VVX (2 m)
km/h
RS
W/m2
00:00 - 00:30 10.2 10.4 9.9 59 0.0 4.3 285 9.7 0
00:30 - 01:00 10.0 10.1 9.9 59 0.0 3.2 299 9.4 0
01:00 - 01:30 9.6 9.9 9.3 58 0.0 0.4 306 3.6 0
01:30 - 02:00 9.7 9.9 9.5 57 0.0 2.5 358 8.6 0
02:00 - 02:30 9.6 9.8 9.2 61 0.0 4.7 358 13.3 0
02:30 - 03:00 9.0 9.2 8.8 65 0.0 2.9 346 12.6 0
03:00 - 03:30 9.0 9.1 8.9 64 0.0 1.4 334 6.1 0
03:30 - 04:00 8.9 9.1 8.8 64 0.0 0.7 339 5.0 0
04:00 - 04:30 8.7 9.0 8.6 65 0.0 0.4 330 5.8 0
04:30 - 05:00 9.7 10.1 9.1 60 0.0 2.2 303 7.2 0
05:00 - 05:30 9.3 9.9 9.0 62 0.0 1.4 308 9.7 0
05:30 - 06:00 9.5 9.7 9.2 61 0.0 2.5 299 7.9 0
06:00 - 06:30 9.7 9.9 9.4 60 0.0 1.8 292 9.0 0
06:30 - 07:00 9.5 9.7 9.2 61 0.0 0.0 329 2.9 10
07:00 - 07:30 9.7 10.1 9.4 61 0.0 0.0 307 1.4 75
07:30 - 08:00 10.3 10.6 10.1 60 0.0 0.0 359 3.2 138
08:00 - 08:30 10.3 10.9 10.0 61 0.0 0.4 353 4.7 180
08:30 - 09:00 12.2 13.1 10.8 55 0.0 0.0 228 2.9 267
09:00 - 09:30 12.6 13.1 12.1 54 0.0 0.7 11 4.0 356
09:30 - 10:00 13.4 14.2 12.9 49 0.0 0.7 37 4.7 435
10:00 - 10:30 14.5 15.1 13.9 50 0.0 0.7 298 4.3 477
10:30 - 11:00 14.5 14.8 14.1 55 0.0 1.1 224 6.5 504
11:00 - 11:30 14.4 14.6 13.9 58 0.0 0.7 245 7.9 524
11:30 - 12:00 14.9 15.2 14.2 51 0.0 0.7 279 4.7 531
12:00 - 12:30 14.9 15.5 13.7 56 0.0 2.5 215 10.4 515
12:30 - 13:00 14.2 14.6 13.7 65 0.0 2.9 189 7.6 487
13:00 - 13:30 14.3 15.2 13.2 65 0.0 2.2 202 10.1 444
13:30 - 14:00 13.8 15.3 12.5 67 0.0 2.5 151 8.6 387
14:00 - 14:30 13.6 14.5 13.0 69 0.0 2.9 200 9.0 313
14:30 - 15:00 13.1 14.0 12.1 71 0.0 2.5 203 9.4 244
15:00 - 15:30 12.7 13.0 12.3 72 0.0 1.4 210 7.2 169
15:30 - 16:00 12.2 12.4 11.8 74 0.0 0.7 215 6.5 44
16:00 - 16:30 11.1 11.7 10.4 77 0.0 0.7 245 4.7 10
16:30 - 17:00 10.2 10.4 10.0 78 0.0 1.1 294 4.3 0
17:00 - 17:30 10.1 10.3 9.9 75 0.0 1.1 343 7.2 0
17:30 - 18:00 10.4 10.5 10.3 66 0.0 9.4 10 15.1 0
18:00 - 18:30 10.1 10.4 10.0 68 0.0 5.8 357 15.1 0
18:30 - 19:00 9.9 10.0 9.8 71 0.0 0.7 330 4.0 0
19:00 - 19:30 10.1 10.3 10.0 69 0.0 1.4 346 4.7 0
19:30 - 20:00 10.1 10.3 9.9 69 0.0 2.5 353 7.2 0
20:00 - 20:30 10.8 10.9 10.2 60 0.0 4.7 12 7.6 0
20:30 - 21:00 11.2 11.3 11.0 57 0.0 3.2 40 6.1 0
21:00 - 21:30 11.2 11.3 11.0 54 0.0 1.4 41 4.0 0
21:30 - 22:00 10.3 11.0 9.9 57 0.0 0.0 289 1.8 0
22:00 - 22:30 10.0 10.2 9.8 61 0.0 0.0 291 0.0 0
22:30 - 23:00 10.2 10.5 9.8 60 0.0 1.1 4 4.0 0
23:00 - 23:30 9.7 10.0 9.3 64 0.0 0.0 208 2.2 0

Les dades en taronja només han passat un control de qualitat automàtic. Resta pendent la seva validació definitiva.